createdAt,value
2023-02-18T00:01:26.619Z,73.00
2023-02-18T00:03:26.643Z,73.00
2023-02-18T00:05:26.610Z,73.00
2023-02-18T00:07:26.654Z,73.00
2023-02-18T00:09:26.627Z,73.00
2023-02-18T00:11:26.687Z,73.00
2023-02-18T00:13:26.640Z,73.00
2023-02-18T00:15:56.726Z,73.00
2023-02-18T00:17:56.627Z,73.00
2023-02-18T00:19:56.742Z,73.00
2023-02-18T00:21:56.620Z,73.00
2023-02-18T00:23:56.612Z,73.00
2023-02-18T00:25:56.621Z,73.00
2023-02-18T00:27:56.715Z,73.00
2023-02-18T00:29:56.693Z,73.00
2023-02-18T00:31:56.730Z,73.00
2023-02-18T00:33:56.618Z,73.00
2023-02-18T00:35:56.620Z,73.00
2023-02-18T00:37:56.669Z,73.00
2023-02-18T00:39:56.663Z,73.00
2023-02-18T00:41:56.666Z,73.00
2023-02-18T00:43:56.645Z,73.00
2023-02-18T00:45:56.641Z,73.00
2023-02-18T00:47:56.743Z,72.00
2023-02-18T00:49:56.627Z,72.00
2023-02-18T00:51:56.651Z,72.00
2023-02-18T00:53:56.642Z,72.00
2023-02-18T00:55:56.643Z,72.00
2023-02-18T00:57:56.694Z,72.00
2023-02-18T00:59:56.646Z,72.00
2023-02-18T01:01:56.681Z,72.00
2023-02-18T01:03:56.772Z,72.00
2023-02-18T01:05:56.672Z,72.00
2023-02-18T01:07:56.665Z,72.00
2023-02-18T01:09:56.640Z,72.00
2023-02-18T01:11:56.656Z,72.00
2023-02-18T01:13:56.652Z,72.00
2023-02-18T01:15:56.802Z,72.00
2023-02-18T01:17:56.660Z,72.00
2023-02-18T01:19:56.846Z,72.00
2023-02-18T01:21:56.683Z,72.00
2023-02-18T01:23:56.721Z,72.00
2023-02-18T01:25:56.677Z,72.00
2023-02-18T01:27:56.659Z,72.00
2023-02-18T01:29:56.702Z,72.00
2023-02-18T01:31:56.716Z,72.00
2023-02-18T01:33:56.767Z,72.00
2023-02-18T01:35:56.681Z,72.00
2023-02-18T01:37:56.750Z,72.00
2023-02-18T01:39:56.744Z,72.00
2023-02-18T01:41:56.716Z,72.00
2023-02-18T01:43:56.742Z,72.00
2023-02-18T01:45:57.831Z,72.00
2023-02-18T01:47:56.753Z,72.00
2023-02-18T01:49:56.769Z,72.00
2023-02-18T01:51:56.665Z,72.00
2023-02-18T01:53:56.758Z,72.00
2023-02-18T01:58:08.862Z,72.00
2023-02-18T02:00:08.922Z,72.00
2023-02-18T02:02:08.894Z,72.00
2023-02-18T02:04:08.966Z,72.00
2023-02-18T02:06:09.092Z,72.00
2023-02-18T02:08:08.855Z,72.00
2023-02-18T02:10:08.860Z,73.00
2023-02-18T02:12:08.894Z,73.00
2023-02-18T02:14:08.892Z,73.00
2023-02-18T02:16:09.392Z,73.00
2023-02-18T02:18:08.857Z,73.00
2023-02-18T02:20:08.887Z,73.00
2023-02-18T02:22:08.876Z,73.00
2023-02-18T02:24:08.872Z,73.00
2023-02-18T02:26:09.130Z,72.00
2023-02-18T02:28:08.887Z,72.00
2023-02-18T02:30:08.965Z,72.00
2023-02-18T02:32:08.881Z,72.00
2023-02-18T02:34:08.863Z,72.00
2023-02-18T02:36:09.073Z,72.00
2023-02-18T02:38:08.892Z,72.00
2023-02-18T02:40:08.893Z,72.00
2023-02-18T02:42:08.878Z,72.00
2023-02-18T02:44:08.877Z,72.00
2023-02-18T02:46:09.330Z,72.00
2023-02-18T02:48:08.979Z,72.00
2023-02-18T02:50:09.013Z,72.00
2023-02-18T02:52:08.895Z,72.00
2023-02-18T02:54:08.902Z,72.00
2023-02-18T02:56:09.116Z,72.00
2023-02-18T02:58:08.943Z,72.00
2023-02-18T03:00:08.904Z,72.00
2023-02-18T03:02:38.983Z,72.00
2023-02-18T03:04:38.899Z,72.00
2023-02-18T03:06:38.933Z,72.00
2023-02-18T03:08:38.904Z,72.00
2023-02-18T03:10:38.955Z,72.00
2023-02-18T03:12:38.899Z,71.00
2023-02-18T03:14:38.969Z,71.00
2023-02-18T03:16:38.946Z,71.00
2023-02-18T03:18:38.910Z,72.00
2023-02-18T03:20:39.032Z,71.00
2023-02-18T03:22:38.920Z,71.00
2023-02-18T03:24:38.915Z,71.00
2023-02-18T03:26:38.939Z,72.00
2023-02-18T03:28:38.932Z,72.00
2023-02-18T03:30:38.923Z,72.00
2023-02-18T03:32:39.015Z,72.00
2023-02-18T03:34:38.918Z,72.00
2023-02-18T03:36:38.932Z,72.00
2023-02-18T03:38:38.908Z,72.00
2023-02-18T03:40:38.939Z,72.00
2023-02-18T03:42:38.922Z,72.00
2023-02-18T03:44:38.979Z,72.00
2023-02-18T03:46:38.918Z,72.00
2023-02-18T03:48:38.922Z,72.00
2023-02-18T03:50:39.022Z,72.00
2023-02-18T03:52:38.943Z,72.00
2023-02-18T03:54:39.067Z,72.00
2023-02-18T03:56:38.940Z,72.00
2023-02-18T03:58:38.978Z,72.00
2023-02-18T04:00:38.922Z,72.00
2023-02-18T04:02:38.938Z,72.00
2023-02-18T04:04:39.097Z,72.00
2023-02-18T04:06:38.934Z,72.00
2023-02-18T04:08:38.953Z,71.00
2023-02-18T04:10:38.941Z,71.00
2023-02-18T04:12:39.143Z,72.00
2023-02-18T04:14:38.945Z,72.00
2023-02-18T04:16:39.006Z,72.00
2023-02-18T04:18:38.950Z,72.00
2023-02-18T04:20:38.943Z,72.00
2023-02-18T04:22:39.071Z,72.00
2023-02-18T04:24:38.946Z,71.00
2023-02-18T04:26:38.983Z,71.00
2023-02-18T04:28:38.970Z,71.00
2023-02-18T04:30:39.109Z,71.00
2023-02-18T04:32:38.952Z,71.00
2023-02-18T04:34:38.960Z,71.00
2023-02-18T04:36:38.964Z,71.00
2023-02-18T04:38:39.099Z,71.00
2023-02-18T04:40:38.955Z,70.00
2023-02-18T04:42:38.943Z,70.00
2023-02-18T04:44:38.960Z,70.00
2023-02-18T04:46:39.028Z,70.00
2023-02-18T04:48:38.970Z,70.00
2023-02-18T04:50:38.960Z,70.00
2023-02-18T04:52:38.970Z,70.00
2023-02-18T04:54:38.961Z,70.00
2023-02-18T04:56:38.950Z,70.00
2023-02-18T04:58:38.950Z,70.00
2023-02-18T05:01:09.069Z,70.00
2023-02-18T05:03:08.975Z,70.00
2023-02-18T05:05:09.022Z,70.00
2023-02-18T05:07:09.110Z,70.00
2023-02-18T05:09:09.032Z,70.00
2023-02-18T05:11:09.126Z,69.00
2023-02-18T05:13:08.981Z,69.00
2023-02-18T05:15:09.064Z,69.00
2023-02-18T05:17:09.001Z,69.00
2023-02-18T05:19:08.976Z,69.00
2023-02-18T05:21:08.979Z,69.00
2023-02-18T05:23:09.107Z,69.00
2023-02-18T05:25:09.014Z,69.00
2023-02-18T05:27:08.997Z,69.00
2023-02-18T05:29:09.008Z,68.00
2023-02-18T05:31:09.076Z,68.00
2023-02-18T05:33:09.009Z,68.00
2023-02-18T05:35:09.006Z,68.00
2023-02-18T05:37:09.112Z,68.00
2023-02-18T05:39:09.102Z,68.00
2023-02-18T05:41:09.028Z,68.00
2023-02-18T05:43:09.001Z,68.00
2023-02-18T05:45:09.123Z,68.00
2023-02-18T05:47:11.359Z,68.00
2023-02-18T05:49:09.006Z,68.00
2023-02-18T05:51:09.021Z,68.00
2023-02-18T05:53:09.016Z,68.00
2023-02-18T05:55:09.020Z,68.00
2023-02-18T05:57:09.050Z,68.00
2023-02-18T05:59:09.036Z,68.00
2023-02-18T06:01:09.034Z,68.00
2023-02-18T06:03:09.072Z,68.00
2023-02-18T06:05:09.173Z,68.00
2023-02-18T06:07:09.123Z,68.00
2023-02-18T06:09:09.111Z,68.00
2023-02-18T06:11:09.060Z,68.00
2023-02-18T06:13:09.041Z,68.00
2023-02-18T06:15:09.030Z,69.00
2023-02-18T06:17:09.017Z,69.00
2023-02-18T06:19:09.010Z,69.00
2023-02-18T06:21:09.052Z,69.00
2023-02-18T06:23:11.583Z,69.00
2023-02-18T06:25:09.141Z,69.00
2023-02-18T06:27:09.077Z,69.00
2023-02-18T06:29:09.046Z,69.00
2023-02-18T06:31:09.143Z,69.00
2023-02-18T06:33:09.145Z,69.00
2023-02-18T06:35:09.104Z,69.00
2023-02-18T06:37:09.116Z,69.00
2023-02-18T06:39:09.127Z,69.00
2023-02-18T06:41:09.040Z,69.00
2023-02-18T06:43:09.040Z,70.00
2023-02-18T06:45:09.051Z,70.00
2023-02-18T06:47:09.017Z,70.00
2023-02-18T06:49:09.236Z,70.00
2023-02-18T06:51:09.060Z,70.00
2023-02-18T06:53:39.095Z,70.00
2023-02-18T06:55:39.141Z,70.00
2023-02-18T06:57:39.076Z,69.00
2023-02-18T06:59:39.032Z,69.00
2023-02-18T07:01:39.074Z,69.00
2023-02-18T07:03:39.154Z,69.00
2023-02-18T07:05:39.138Z,69.00
2023-02-18T07:07:39.131Z,69.00
2023-02-18T07:09:39.160Z,69.00
2023-02-18T07:11:39.076Z,70.00
2023-02-18T07:13:39.104Z,70.00
2023-02-18T07:15:39.091Z,70.00
2023-02-18T07:17:39.046Z,70.00
2023-02-18T07:19:39.058Z,70.00
2023-02-18T07:21:39.056Z,70.00
2023-02-18T07:23:39.317Z,70.00
2023-02-18T07:25:39.170Z,70.00
2023-02-18T07:27:39.226Z,70.00
2023-02-18T07:29:39.144Z,70.00
2023-02-18T07:31:39.209Z,70.00
2023-02-18T07:33:39.054Z,70.00
2023-02-18T07:35:39.054Z,69.00
2023-02-18T07:37:39.070Z,69.00
2023-02-18T07:39:39.201Z,69.00
2023-02-18T07:41:39.166Z,69.00
2023-02-18T07:43:39.203Z,69.00
2023-02-18T07:45:39.163Z,69.00
2023-02-18T07:47:39.121Z,69.00
2023-02-18T07:49:39.144Z,69.00
2023-02-18T07:51:39.145Z,69.00
2023-02-18T07:53:39.162Z,69.00
2023-02-18T07:55:39.200Z,69.00
2023-02-18T07:57:39.190Z,69.00
2023-02-18T07:59:39.110Z,69.00
2023-02-18T08:01:39.084Z,69.00
2023-02-18T08:03:39.082Z,68.00
2023-02-18T08:05:39.379Z,68.00
2023-02-18T08:07:39.176Z,68.00
2023-02-18T08:09:39.189Z,68.00
2023-02-18T08:11:39.107Z,68.00
2023-02-18T08:13:39.223Z,68.00
2023-02-18T08:15:39.089Z,68.00
2023-02-18T08:17:39.140Z,68.00
2023-02-18T08:19:39.165Z,68.00
2023-02-18T08:21:39.155Z,68.00
2023-02-18T08:23:39.126Z,69.00
2023-02-18T08:25:39.166Z,69.00
2023-02-18T08:27:39.140Z,69.00
2023-02-18T08:29:39.119Z,69.00
2023-02-18T08:31:39.297Z,69.00
2023-02-18T08:33:39.145Z,68.00
2023-02-18T08:35:39.109Z,68.00
2023-02-18T08:37:53.852Z,68.00
2023-02-18T08:39:39.884Z,68.00
2023-02-18T08:41:39.294Z,68.00
2023-02-18T08:43:39.245Z,68.00
2023-02-18T08:46:09.204Z,68.00
2023-02-18T08:48:18.659Z,68.00
2023-02-18T08:50:09.191Z,68.00
2023-02-18T08:54:09.197Z,67.00
2023-02-18T08:56:09.133Z,67.00
2023-02-18T08:59:53.706Z,67.00
2023-02-18T09:01:53.695Z,67.00
2023-02-18T09:03:53.773Z,67.00
2023-02-18T09:05:53.809Z,67.00
2023-02-18T09:07:53.642Z,67.00
2023-02-18T09:09:53.760Z,67.00
2023-02-18T09:11:53.686Z,67.00
2023-02-18T09:13:53.674Z,67.00
2023-02-18T09:15:53.801Z,67.00
2023-02-18T09:17:53.720Z,67.00
2023-02-18T09:19:53.718Z,67.00
2023-02-18T09:21:53.747Z,67.00
2023-02-18T09:23:53.688Z,67.00
2023-02-18T09:25:53.665Z,67.00
2023-02-18T09:27:53.644Z,67.00
2023-02-18T09:29:53.706Z,67.00
2023-02-18T09:31:53.862Z,66.00
2023-02-18T09:33:53.758Z,66.00
2023-02-18T09:35:53.640Z,67.00
2023-02-18T09:37:53.638Z,67.00
2023-02-18T09:40:23.765Z,67.00
2023-02-18T09:42:23.730Z,67.00
2023-02-18T09:44:23.656Z,67.00
2023-02-18T09:46:23.763Z,67.00
2023-02-18T09:48:26.414Z,66.00
2023-02-18T09:50:23.758Z,67.00
2023-02-18T09:52:23.793Z,67.00
2023-02-18T09:54:23.687Z,67.00
2023-02-18T09:56:23.679Z,67.00
2023-02-18T09:58:23.930Z,66.00
2023-02-18T10:00:23.716Z,66.00
2023-02-18T10:02:23.748Z,66.00
2023-02-18T10:04:23.767Z,66.00
2023-02-18T10:06:23.810Z,66.00
2023-02-18T10:08:23.776Z,65.00
2023-02-18T10:10:23.714Z,65.00
2023-02-18T10:12:24.739Z,65.00
2023-02-18T10:14:23.750Z,65.00
2023-02-18T10:16:23.804Z,65.00
2023-02-18T10:18:23.755Z,65.00
2023-02-18T10:20:23.789Z,64.00
2023-02-18T10:22:23.775Z,64.00
2023-02-18T10:24:23.703Z,65.00
2023-02-18T10:26:23.691Z,65.00
2023-02-18T10:28:23.700Z,65.00
2023-02-18T10:30:24.826Z,65.00
2023-02-18T10:32:24.789Z,65.00
2023-02-18T10:34:23.694Z,65.00
2023-02-18T10:36:23.782Z,64.00
2023-02-18T10:38:23.782Z,65.00
2023-02-18T10:40:23.699Z,65.00
2023-02-18T10:42:23.726Z,65.00
2023-02-18T10:44:23.728Z,65.00
2023-02-18T10:46:23.769Z,65.00
2023-02-18T10:48:23.763Z,65.00
2023-02-18T10:50:23.798Z,65.00
2023-02-18T10:52:23.793Z,65.00
2023-02-18T10:54:23.807Z,65.00
2023-02-18T10:56:23.735Z,65.00
2023-02-18T10:58:23.686Z,64.00
2023-02-18T11:00:23.756Z,64.00
2023-02-18T11:02:23.750Z,64.00
2023-02-18T11:04:23.829Z,64.00
2023-02-18T11:06:23.803Z,65.00
2023-02-18T11:08:23.796Z,65.00
2023-02-18T11:10:23.811Z,65.00
2023-02-18T11:12:23.750Z,65.00
2023-02-18T11:14:23.768Z,64.00
2023-02-18T11:16:23.796Z,65.00
2023-02-18T11:18:23.753Z,65.00
2023-02-18T11:20:23.801Z,64.00
2023-02-18T11:22:23.829Z,65.00
2023-02-18T11:24:23.820Z,65.00
2023-02-18T11:26:23.724Z,65.00
2023-02-18T11:28:23.727Z,65.00
2023-02-18T11:30:23.899Z,65.00
2023-02-18T11:32:23.777Z,65.00
2023-02-18T11:34:53.796Z,65.00
2023-02-18T11:36:53.706Z,65.00
2023-02-18T11:38:53.821Z,65.00
2023-02-18T11:40:53.845Z,65.00
2023-02-18T11:42:53.751Z,64.00
2023-02-18T11:44:53.795Z,65.00
2023-02-18T11:46:53.748Z,64.00
2023-02-18T11:48:53.822Z,65.00
2023-02-18T11:50:53.831Z,65.00
2023-02-18T11:52:53.853Z,65.00
2023-02-18T11:54:53.748Z,64.00
2023-02-18T11:56:53.955Z,64.00
2023-02-18T11:58:53.715Z,64.00
2023-02-18T12:00:53.834Z,64.00
2023-02-18T12:02:54.812Z,64.00
2023-02-18T12:04:54.874Z,65.00
2023-02-18T12:06:53.978Z,65.00
2023-02-18T12:08:53.836Z,65.00
2023-02-18T12:10:53.788Z,65.00
2023-02-18T12:12:53.876Z,65.00
2023-02-18T12:14:53.778Z,65.00
2023-02-18T12:16:53.813Z,65.00
2023-02-18T12:18:53.818Z,65.00
2023-02-18T12:20:53.856Z,65.00
2023-02-18T12:22:53.838Z,63.00
2023-02-18T12:24:53.798Z,63.00
2023-02-18T12:26:53.789Z,63.00
2023-02-18T12:28:53.757Z,63.00
2023-02-18T12:30:53.873Z,63.00
2023-02-18T12:32:53.763Z,63.00
2023-02-18T12:34:53.842Z,63.00
2023-02-18T12:36:53.813Z,63.00
2023-02-18T12:38:53.904Z,63.00
2023-02-18T12:40:53.940Z,63.00
2023-02-18T12:42:53.885Z,63.00
2023-02-18T12:44:53.788Z,63.00
2023-02-18T12:46:53.810Z,63.00
2023-02-18T12:48:53.802Z,62.00
2023-02-18T12:50:53.872Z,62.00
2023-02-18T12:52:53.989Z,62.00
2023-02-18T12:54:53.945Z,62.00
2023-02-18T12:56:54.106Z,62.00
2023-02-18T12:58:54.175Z,62.00
2023-02-18T13:00:54.041Z,61.00
2023-02-18T13:02:53.911Z,62.00
2023-02-18T13:04:53.805Z,62.00
2023-02-18T13:06:53.802Z,62.00
2023-02-18T13:08:53.810Z,62.00
2023-02-18T13:10:54.012Z,62.00
2023-02-18T13:12:54.029Z,63.00
2023-02-18T13:14:53.802Z,63.00
2023-02-18T13:16:53.918Z,63.00
2023-02-18T13:18:53.856Z,63.00
2023-02-18T13:20:53.859Z,63.00
2023-02-18T13:22:53.884Z,64.00
2023-02-18T13:24:53.894Z,64.00
2023-02-18T13:26:53.928Z,64.00
2023-02-18T13:28:53.824Z,64.00
2023-02-18T13:31:24.056Z,65.00
2023-02-18T13:33:23.803Z,65.00
2023-02-18T13:35:23.802Z,65.00
2023-02-18T13:37:23.787Z,65.00
2023-02-18T13:39:23.851Z,65.00
2023-02-18T13:41:23.907Z,65.00
2023-02-18T13:43:23.830Z,65.00
2023-02-18T13:45:23.959Z,65.00
2023-02-18T13:47:23.963Z,65.00
2023-02-18T13:49:23.880Z,64.00
2023-02-18T13:51:23.868Z,64.00
2023-02-18T13:53:23.806Z,64.00
2023-02-18T13:55:23.918Z,64.00
2023-02-18T13:57:23.918Z,63.00
2023-02-18T13:59:23.810Z,63.00
2023-02-18T14:01:23.951Z,63.00
2023-02-18T14:03:23.921Z,63.00
2023-02-18T14:05:23.871Z,62.00
2023-02-18T14:07:23.885Z,62.00
2023-02-18T14:09:24.075Z,62.00
2023-02-18T14:11:24.740Z,62.00
2023-02-18T14:13:23.954Z,62.00
2023-02-18T14:15:23.878Z,62.00
2023-02-18T14:17:23.829Z,62.00
2023-02-18T14:19:23.884Z,62.00
2023-02-18T14:21:23.899Z,62.00
2023-02-18T14:23:23.913Z,62.00
2023-02-18T14:25:23.932Z,61.00
2023-02-18T14:27:24.125Z,62.00
2023-02-18T14:29:23.864Z,62.00
2023-02-18T14:31:29.882Z,62.00
2023-02-18T14:33:23.850Z,62.00
2023-02-18T14:35:23.879Z,62.00
2023-02-18T14:37:23.897Z,61.00
2023-02-18T14:39:23.920Z,61.00
2023-02-18T14:41:23.935Z,61.00
2023-02-18T14:43:23.971Z,61.00
2023-02-18T14:45:23.863Z,61.00
2023-02-18T14:47:23.994Z,61.00
2023-02-18T14:49:23.924Z,61.00
2023-02-18T14:51:23.906Z,61.00
2023-02-18T14:53:23.938Z,61.00
2023-02-18T14:55:23.933Z,61.00
2023-02-18T14:57:23.964Z,61.00
2023-02-18T14:59:23.866Z,61.00
2023-02-18T15:01:23.905Z,61.00
2023-02-18T15:03:24.010Z,61.00
2023-02-18T15:05:23.926Z,61.00
2023-02-18T15:07:23.928Z,61.00
2023-02-18T15:09:23.996Z,61.00
2023-02-18T15:11:23.976Z,61.00
2023-02-18T15:13:23.987Z,61.00
2023-02-18T15:15:23.974Z,61.00
2023-02-18T15:17:23.952Z,61.00
2023-02-18T15:19:24.182Z,61.00
2023-02-18T15:21:23.950Z,61.00
2023-02-18T15:23:23.939Z,61.00
2023-02-18T15:25:53.991Z,61.00
2023-02-18T15:27:53.985Z,61.00
2023-02-18T15:29:54.272Z,61.00
2023-02-18T15:31:54.433Z,61.00
2023-02-18T15:33:54.181Z,61.00
2023-02-18T15:35:54.300Z,61.00
2023-02-18T15:37:54.286Z,61.00
2023-02-18T15:39:54.208Z,61.00
2023-02-18T15:41:54.273Z,62.00
2023-02-18T15:43:53.985Z,62.00
2023-02-18T15:45:53.985Z,62.00
2023-02-18T15:47:54.002Z,62.00
2023-02-18T15:49:53.988Z,62.00
2023-02-18T15:52:08.046Z,62.00
2023-02-18T15:53:54.023Z,62.00
2023-02-18T15:55:53.970Z,62.00
2023-02-18T15:57:53.980Z,62.00
2023-02-18T15:59:55.077Z,62.00
2023-02-18T16:01:55.119Z,62.00
2023-02-18T16:03:53.941Z,62.00
2023-02-18T16:05:53.989Z,62.00
2023-02-18T16:10:02.487Z,62.00
2023-02-18T16:12:02.483Z,63.00
2023-02-18T16:14:02.537Z,63.00
2023-02-18T16:16:02.524Z,63.00
2023-02-18T16:18:02.447Z,63.00
2023-02-18T16:20:05.282Z,63.00
2023-02-18T16:22:02.440Z,63.00
2023-02-18T16:24:02.495Z,63.00
2023-02-18T16:26:02.470Z,63.00
2023-02-18T16:28:02.504Z,63.00
2023-02-18T16:30:02.632Z,63.00
2023-02-18T16:32:02.629Z,63.00
2023-02-18T16:34:02.676Z,63.00
2023-02-18T16:36:02.432Z,63.00
2023-02-18T16:38:02.459Z,63.00
2023-02-18T16:40:04.030Z,63.00
2023-02-18T16:42:02.536Z,63.00
2023-02-18T16:44:02.521Z,63.00
2023-02-18T16:46:02.594Z,63.00
2023-02-18T16:48:02.568Z,64.00
2023-02-18T16:50:02.683Z,64.00
2023-02-18T16:52:02.499Z,64.00
2023-02-18T16:54:02.484Z,64.00
2023-02-18T16:56:02.537Z,64.00
2023-02-18T16:58:02.528Z,64.00
2023-02-18T17:00:02.551Z,64.00
2023-02-18T17:02:02.560Z,64.00
2023-02-18T17:04:02.589Z,64.00
2023-02-18T17:06:02.545Z,64.00
2023-02-18T17:08:02.472Z,64.00
2023-02-18T17:10:02.527Z,64.00
2023-02-18T17:12:02.708Z,64.00
2023-02-18T17:14:02.538Z,64.00
2023-02-18T17:16:02.570Z,64.00
2023-02-18T17:18:02.741Z,65.00
2023-02-18T17:20:02.552Z,65.00
2023-02-18T17:22:02.608Z,65.00
2023-02-18T17:24:02.510Z,65.00
2023-02-18T17:26:02.534Z,65.00
2023-02-18T17:28:02.514Z,66.00
2023-02-18T17:30:02.606Z,66.00
2023-02-18T17:32:02.660Z,66.00
2023-02-18T17:34:02.570Z,66.00
2023-02-18T17:36:02.552Z,66.00
2023-02-18T17:38:02.486Z,66.00
2023-02-18T17:40:02.522Z,66.00
2023-02-18T17:42:02.560Z,66.00
2023-02-18T17:44:02.528Z,66.00
2023-02-18T17:46:02.588Z,67.00
2023-02-18T17:48:32.551Z,67.00
2023-02-18T17:50:32.593Z,67.00
2023-02-18T17:52:32.611Z,67.00
2023-02-18T17:54:32.525Z,67.00
2023-02-18T17:56:32.646Z,68.00
2023-02-18T17:58:32.604Z,68.00
2023-02-18T18:00:32.625Z,68.00
2023-02-18T18:02:32.674Z,68.00
2023-02-18T18:04:32.702Z,68.00
2023-02-18T18:06:32.507Z,68.00
2023-02-18T18:08:32.487Z,68.00
2023-02-18T18:10:32.540Z,68.00
2023-02-18T18:12:32.584Z,68.00
2023-02-18T18:14:32.579Z,69.00
2023-02-18T18:16:32.579Z,69.00
2023-02-18T18:18:32.625Z,69.00
2023-02-18T18:20:32.627Z,69.00
2023-02-18T18:22:32.535Z,69.00
2023-02-18T18:24:32.520Z,71.00
2023-02-18T18:26:32.555Z,71.00
2023-02-18T18:28:33.408Z,72.00
2023-02-18T18:30:32.780Z,72.00
2023-02-18T18:32:32.602Z,72.00
2023-02-18T18:34:32.623Z,73.00
2023-02-18T18:36:32.624Z,74.00
2023-02-18T18:38:32.568Z,74.00
2023-02-18T18:40:32.563Z,74.00
2023-02-18T18:42:32.596Z,74.00
2023-02-18T18:44:32.627Z,76.00
2023-02-18T18:46:32.657Z,76.00
2023-02-18T18:48:32.675Z,76.00
2023-02-18T18:50:32.643Z,76.00
2023-02-18T18:52:32.660Z,77.00
2023-02-18T18:54:32.623Z,77.00
2023-02-18T18:56:32.575Z,78.00
2023-02-18T18:58:32.640Z,78.00
2023-02-18T19:00:32.590Z,78.00
2023-02-18T19:02:32.637Z,78.00
2023-02-18T19:04:32.707Z,78.00
2023-02-18T19:06:32.762Z,79.00
2023-02-18T19:08:32.610Z,79.00
2023-02-18T19:10:32.656Z,79.00
2023-02-18T19:12:32.716Z,79.00
2023-02-18T19:14:32.608Z,79.00
2023-02-18T19:16:32.590Z,79.00
2023-02-18T19:18:32.626Z,80.00
2023-02-18T19:20:32.691Z,80.00
2023-02-18T19:22:32.645Z,80.00
2023-02-18T19:24:32.583Z,80.00
2023-02-18T19:26:32.568Z,80.00
2023-02-18T19:28:32.639Z,80.00
2023-02-18T19:30:32.694Z,80.00
2023-02-18T19:32:32.631Z,80.00
2023-02-18T19:34:32.698Z,80.00
2023-02-18T19:36:32.720Z,80.00
2023-02-18T19:39:02.586Z,80.00
2023-02-18T19:41:02.586Z,80.00
2023-02-18T19:43:02.635Z,81.00
2023-02-18T19:45:02.635Z,81.00
2023-02-18T19:47:02.634Z,81.00
2023-02-18T19:49:02.655Z,81.00
2023-02-18T19:51:02.682Z,81.00
2023-02-18T19:53:02.698Z,81.00
2023-02-18T19:55:02.594Z,81.00
2023-02-18T19:57:02.613Z,81.00
2023-02-18T19:59:02.641Z,81.00
2023-02-18T20:01:02.639Z,81.00
2023-02-18T20:03:02.769Z,81.00
2023-02-18T20:05:02.681Z,81.00
2023-02-18T20:07:02.686Z,81.00
2023-02-18T20:09:02.609Z,81.00
2023-02-18T20:11:02.784Z,81.00
2023-02-18T20:13:02.629Z,81.00
2023-02-18T20:15:02.613Z,81.00
2023-02-18T20:17:02.646Z,81.00
2023-02-18T20:19:02.853Z,82.00
2023-02-18T20:21:02.706Z,82.00
2023-02-18T20:23:02.692Z,82.00
2023-02-18T20:25:02.605Z,82.00
2023-02-18T20:27:02.932Z,82.00
2023-02-18T20:29:02.628Z,82.00
2023-02-18T20:31:02.683Z,82.00
2023-02-18T20:33:02.673Z,82.00
2023-02-18T20:35:02.669Z,82.00
2023-02-18T20:37:02.599Z,82.00
2023-02-18T20:39:15.821Z,82.00
2023-02-18T20:41:02.610Z,82.00
2023-02-18T20:43:02.647Z,82.00
2023-02-18T20:45:02.640Z,82.00
2023-02-18T20:47:02.671Z,82.00
2023-02-18T20:49:02.703Z,82.00
2023-02-18T20:51:02.705Z,82.00
2023-02-18T20:53:02.617Z,82.00
2023-02-18T20:55:02.628Z,82.00
2023-02-18T20:57:02.650Z,82.00
2023-02-18T20:59:02.651Z,82.00
2023-02-18T21:01:02.666Z,82.00
2023-02-18T21:03:02.762Z,82.00
2023-02-18T21:05:02.701Z,82.00
2023-02-18T21:07:02.717Z,82.00
2023-02-18T21:09:02.616Z,82.00
2023-02-18T21:11:02.616Z,82.00
2023-02-18T21:13:02.724Z,82.00
2023-02-18T21:15:02.654Z,83.00
2023-02-18T21:17:02.680Z,83.00
2023-02-18T21:19:02.709Z,83.00
2023-02-18T21:21:02.713Z,83.00
2023-02-18T21:23:02.617Z,83.00
2023-02-18T21:25:02.733Z,83.00
2023-02-18T21:27:02.627Z,83.00
2023-02-18T21:29:32.764Z,83.00
2023-02-18T21:31:32.741Z,83.00
2023-02-18T21:33:32.698Z,83.00
2023-02-18T21:35:32.739Z,83.00
2023-02-18T21:37:32.726Z,83.00
2023-02-18T21:39:32.649Z,83.00
2023-02-18T21:41:32.663Z,83.00
2023-02-18T21:43:32.721Z,83.00
2023-02-18T21:45:32.663Z,83.00
2023-02-18T21:47:32.687Z,83.00
2023-02-18T21:49:32.703Z,83.00
2023-02-18T21:51:32.765Z,83.00
2023-02-18T21:53:32.730Z,83.00
2023-02-18T21:55:32.770Z,83.00
2023-02-18T21:57:32.636Z,83.00
2023-02-18T21:59:32.673Z,83.00
2023-02-18T22:01:32.708Z,83.00
2023-02-18T22:03:32.907Z,83.00
2023-02-18T22:05:32.734Z,83.00
2023-02-18T22:07:32.741Z,83.00
2023-02-18T22:09:32.666Z,83.00
2023-02-18T22:11:32.809Z,83.00
2023-02-18T22:13:32.673Z,83.00
2023-02-18T22:15:32.690Z,83.00
2023-02-18T22:17:32.696Z,83.00
2023-02-18T22:19:32.953Z,83.00
2023-02-18T22:21:32.736Z,83.00
2023-02-18T22:23:32.762Z,83.00
2023-02-18T22:25:32.710Z,83.00
2023-02-18T22:27:32.661Z,83.00
2023-02-18T22:29:32.998Z,83.00
2023-02-18T22:31:32.933Z,83.00
2023-02-18T22:33:32.711Z,83.00
2023-02-18T22:35:32.788Z,83.00
2023-02-18T22:37:32.727Z,83.00
2023-02-18T22:39:32.738Z,83.00
2023-02-18T22:41:32.678Z,83.00
2023-02-18T22:43:32.745Z,83.00
2023-02-18T22:45:32.760Z,83.00
2023-02-18T22:47:32.668Z,83.00
2023-02-18T22:49:32.796Z,83.00
2023-02-18T22:51:32.650Z,83.00
2023-02-18T22:53:32.640Z,83.00
2023-02-18T22:55:32.762Z,83.00
2023-02-18T22:57:32.719Z,83.00
2023-02-18T22:59:32.757Z,83.00
2023-02-18T23:01:32.947Z,83.00
2023-02-18T23:03:32.808Z,83.00
2023-02-18T23:05:32.813Z,83.00
2023-02-18T23:07:32.842Z,83.00
2023-02-18T23:09:32.826Z,83.00
2023-02-18T23:11:32.664Z,83.00
2023-02-18T23:13:32.753Z,83.00
2023-02-18T23:15:32.680Z,83.00
2023-02-18T23:17:32.683Z,83.00
2023-02-18T23:20:02.752Z,83.00
2023-02-18T23:23:55.602Z,83.00
2023-02-18T23:25:55.625Z,83.00
2023-02-18T23:27:55.660Z,83.00
2023-02-18T23:29:55.571Z,83.00
2023-02-18T23:31:55.676Z,83.00
2023-02-18T23:33:55.572Z,83.00
2023-02-18T23:35:55.562Z,83.00
2023-02-18T23:37:55.568Z,83.00
2023-02-18T23:39:55.581Z,83.00
2023-02-18T23:41:55.604Z,83.00
2023-02-18T23:43:55.580Z,83.00
2023-02-18T23:45:55.634Z,83.00
2023-02-18T23:47:55.586Z,83.00
2023-02-18T23:49:55.603Z,83.00
2023-02-18T23:51:55.623Z,83.00
2023-02-18T23:53:55.570Z,83.00
2023-02-18T23:55:55.580Z,83.00
2023-02-18T23:57:55.578Z,83.00
2023-02-18T23:59:55.696Z,83.00
